Aérodrome :
LOGIN :

S'inscrire | Disclaimer

   EN    FR    IT 

 










Légende :    VFR   VFR Marginal   IFR   IFR Intensif   IFR Très Intensif
Visi : 
Plafond : 
>= 8 km
>= 3000ft
5 à 8 km
1000 à 3000 ft
1500m à 5 km
500 à 1000 ft
800 à 1500m
200 à 500 ft
< 800m
< 200 ft
Symboles :   Orages  Brouillard  Fortes neiges  Fortes précipitations  Vent > 20 kt
SIGMETs :   Divers  Orages  Givrage  Turbulence  Onde Orograph.  Cendres Volcan.







- Altitude de l'aérodrome : 313 ft
- Code IATA : LEH
- Voir les cartes d'approche


LFOH - Le Havre Octeville

DERNIER METAR :
  • 260500Z AUTO 20012KT 9999 OVC015 08/06 Q1012

METARs EXPIRÉS :
  • 260430Z AUTO 19011KT 9999 OVC015 08/06 Q1012
  • 260400Z AUTO 19012KT 9999 OVC015 08/06 Q1012
  • 260330Z AUTO 19011KT 9999 OVC017 08/05 Q1012
  • 260300Z AUTO 19011KT 9999 BKN019 OVC048 08/05 Q1012
  • 260230Z AUTO 19010KT 9999 OVC021 08/05 Q1013

TAF TAF LFOH
Valide du 25 à 12h jusqu'au 26 à 12h UTC


251100Z 2512/2612 21012KT CAVOK
BECMG 2603/2605 OVC013
TEMPO 2605/2612 4000 -RA OVC007
ATIS : +33 2 35 54 64 93
Pas de NOTAMs connus pour ce terrain.



MET'MAP, la Météo Aéronautique d'un coup d'oeil ! - Copyright ORBIFLY Décembre 2007 - Disclaimer

ORBIFLY MET'MAP TEAM :

Programmation & Développement : Alexandra Zaïnal
Conception & Développement : Baudouin d'Aumeries
Co-Programmation & Développement : Marc-Olivier Méhu
Soutien technique & logistique : Manuel Goepfert

Contact : metmap@orbifly.com




SOURCES & CREDITS :

   NOAA